map of MII home
MII - Airport
Location
City:  Marília, São Paulo, Brazil
ICAO:SBML
IATA:MII

Details
Type:Airport (Aerodrome, Airfield)
Use:Public/Civil
Latitude:22°11'49"S (-22.196891)
Longitude:49°55'35"W (-49.926399)
Datum:WGS 1984
Elevation:2122 ft (647 m)
Variation:20.11°W (WMM2015v2 magnetic declination)
-0.13° annual change
Runways:1
Longest:5530 × 115 ft (1686 × 35 m), paved

Time
Time Zone:UTC-3 (DST-2)
Local Time:

Weather
METAR:SBML 040800Z 18016KT CAVOK 22/21 Q1014

Related Locations
Nearby:
Farthest:MMD: 12169 mi / 19584 km
Minamidaito [Minami Daito Airport], Minamidaito Jima, 47, JP

Find:

   beyond  
but within

Other Information
Maps:
NOTAMs:
Links:
Sources:

  
  • flag of Brazil
  • flag of São Paulo
  

Sectional Chart

Flight Planning
at skyvector.com

Satellite Image

Google Maps Satellite view

 

Copyright © 2004-2019 Karl L. Swartz. All rights reserved.
The Great Circle Mapper name and logo are trademarks of the Great Circle Mapper.
All other trademarks mentioned herein belong to their respective owners.
Please see credits for attibutions and further copyright information.

  Follow gcmap on Facebook Follow gcmap on Twitter GCmap on LinkedIn

hCard Microformat

Geo Microformat